Flight Track Log - Related Links

Times and Time Zones

All times are in EDT time to prevent confusion due to time zone crossing. See the FLG3921 flight status page for this flight to view local times or setup timezone preferences in your user account.

Time Position Orientation Groundspeed Altitude Reporting Facility
EDT Latitude Longitude Course Direction KTS MPH feet Rate Location/Type
Sun 10:08:12 PM 42.2294 -83.3367 31° Northeast 141 162 1,400  Level Cleveland Center
Sun 10:08:43 PM 42.2472 -83.3222 31° Northeast 151 174 2,400 1,684 Climbing Cleveland Center
Sun 10:09:09 PM 42.2639 -83.3131 22° Northeast 158 182 3,000 1,900 Climbing Cleveland Center
Sun 10:09:43 PM 42.2900 -83.2858 38° Northeast 204 235 4,300 1,770 Climbing Cleveland Center
Sun 10:10:10 PM 42.2961 -83.2572 74° East 212 244 4,800 1,881 Climbing Cleveland Center
Sun 10:10:50 PM 42.2786 -83.1856 108° East 269 310 6,400 2,164 Climbing Cleveland Center
Sun 10:11:11 PM 42.2783 -83.1600 91° East 260 299 7,000 2,418 Climbing Cleveland Center
Sun 10:11:57 PM 42.2894 -83.0714 80° East 296 341 9,100 2,323 Climbing Cleveland Center
Sun 10:12:13 PM 42.2936 -83.0519 74° East 293 337 9,400 1,247 Climbing Cleveland Center
Sun 10:13:14 PM 42.3081 -82.9339 81° East 316 364 10,700 1,756 Climbing Cleveland Center
Sun 10:14:16 PM 42.3250 -82.7989 80° East 357 411 13,000 2,049 Climbing Cleveland Center
Sun 10:15:17 PM 42.3428 -82.6669 80° East 358 412 14,900 1,475 Climbing Cleveland Center
Sun 10:16:18 PM 42.3636 -82.4972 81° East 380 437 16,000 780 Climbing Cleveland Center
Sun 10:17:20 PM 42.3644 -82.3397 90° East 420 483 16,500 634 Climbing Cleveland Center
Sun 10:18:21 PM 42.3578 -82.1769 93° East 434 499 17,300 689 Climbing Cleveland Center
Sun 10:19:22 PM 42.3511 -82.0089 93° East 443 510 17,900 683 Climbing Cleveland Center
Sun 10:20:24 PM 42.3433 -81.8375 93° East 448 516 18,700 780 Climbing Cleveland Center
Sun 10:21:25 PM 42.3356 -81.6667 93° East 449 517 19,500 787 Climbing Cleveland Center
Sun 10:22:26 PM 42.3269 -81.4953 94° East 449 517 20,300 639 Climbing Cleveland Center
Sun 10:23:27 PM 42.3183 -81.3231 94° East 451 519 20,800 488 Climbing Cleveland Center
Sun 10:24:29 PM 42.3100 -81.1475 94° East 459 528 21,300 488 Climbing Cleveland Center
Sun 10:25:30 PM 42.3000 -80.9706 94° East 463 533 21,800 492 Climbing Cleveland Center
Sun 10:26:31 PM 42.2908 -80.7928 94° East 467 537 22,300 492 Climbing Cleveland Center
Sun 10:27:32 PM 42.2917 -80.6172 90° East 463 533 22,800 541 Climbing Cleveland Center
Sun 10:28:33 PM 42.2919 -80.4400 90° East 464 534 23,400 537 Climbing Cleveland Center
Sun 10:29:35 PM 42.2919 -80.2622 90° East 466 536 23,900 488 Climbing Cleveland Center
Sun 10:30:36 PM 42.2917 -80.0833 90° East 471 542 24,400 492 Climbing Cleveland Center
Sun 10:31:37 PM 42.2906 -79.8942 90° East 464 534 24,900 492 Climbing Cleveland Center
Sun 10:32:38 PM 42.2911 -79.7189 90° East 467 537 25,400 492 Climbing Cleveland Center
Sun 10:33:39 PM 42.2900 -79.5425 90° East 470 541 25,900 492 Climbing Cleveland Center
Sun 10:34:40 PM 42.2886 -79.3678 91° East 470 541 26,400 492 Climbing Cleveland Center
Sun 10:35:41 PM 42.2869 -79.1911 91° East 470 541 26,900 293 Climbing Cleveland Center
Sun 10:36:43 PM 42.2853 -78.9775 91° East 475 547 27,000 49 Climbing Cleveland Center
Sun 10:37:44 PM 42.2847 -78.8267 90° East 479 551 27,000  Level Cleveland Center
Sun 10:38:45 PM 42.2828 -78.6431 91° East 485 558 27,000  Level Cleveland Center
Sun 10:39:46 PM 42.2800 -78.4186 91° East 496 571 27,000  Level Cleveland Center
Sun 10:40:47 PM 42.2772 -78.2308 91° East 501 577 27,000  Level Cleveland Center
Sun 10:41:48 PM 42.2736 -78.0436 91° East 501 577 27,000  Level Cleveland Center
Sun 10:42:49 PM 42.2700 -77.8544 91° East 504 580 27,000  Level Cleveland Center
Sun 10:43:50 PM 42.2667 -77.6653 91° East 507 583 27,000  Level Cleveland Center
Sun 10:44:51 PM 42.2622 -77.4769 92° East 510 587 27,000  Level Cleveland Center
Sun 10:45:52 PM 42.2578 -77.2872 92° East 510 587 27,000  Level Cleveland Center
Sun 10:46:53 PM 42.2528 -77.0969 92° East 510 587 27,000 -98 Level Cleveland Center
Sun 10:47:54 PM 42.2467 -76.8686 92° East 510 587 26,800 -836 Descending Cleveland Center
Sun 10:48:55 PM 42.2411 -76.6783 92° East 510 587 25,300 -1,475 Descending Cleveland Center
Sun 10:49:56 PM 42.2356 -76.4872 92° East 510 587 23,800 -1,475 Descending Cleveland Center
Sun 10:50:57 PM 42.2281 -76.2983 93° East 509 586 22,300 -1,475 Descending Cleveland Center
Sun 10:51:58 PM 42.2231 -76.1217 92° East 486 559 20,800 -1,393 Descending Cleveland Center
Sun 10:52:49 PM 42.2189 -75.9919 92° East 477 549 19,700 -1,405 Descending Boston Center
Sun 10:53:49 PM 42.2131 -75.8192 93° East 466 536 18,200 -1,587 Descending Boston Center
Sun 10:54:50 PM 42.2050 -75.6142 93° East 461 531 16,500 -1,623 Descending Boston Center
Sun 10:55:51 PM 42.1989 -75.4500 93° East 448 516 14,900 -1,587 Descending Boston Center
Sun 10:56:51 PM 42.1928 -75.3008 93° East 417 480 13,300 -1,488 Descending Boston Center
Sun 10:57:52 PM 42.1867 -75.1511 93° East 405 466 11,900 -1,131 Descending Boston Center
Sun 10:58:53 PM 42.1808 -75.0036 93° East 392 451 11,000 -443 Descending Boston Center
Sun 10:59:54 PM 42.1419 -74.8714 112° Southeast 390 449 11,000  Level Boston Center
Sun 11:00:55 PM 42.0889 -74.7458 120° Southeast 387 445 11,000 -492 Level Boston Center
Sun 11:01:56 PM 42.0406 -74.6308 119° Southeast 325 374 10,000 -1,377 Descending Boston Center
Sun 11:02:57 PM 42.0014 -74.5364 119° Southeast 294 338 8,200 -1,488 Descending Boston Center
Sun 11:03:57 PM 41.9633 -74.4483 120° Southeast 278 320 7,000 -595 Descending Boston Center
Sun 11:04:58 PM 41.9272 -74.3628 120° Southeast 265 305 7,000 -443 Level Boston Center
Sun 11:05:59 PM 41.8894 -74.2781 121° Southeast 264 304 6,100 -1,066 Descending Boston Center
Sun 11:07:30 PM 41.8000 -74.1833 142° Southeast 274 315 4,300 -834 Descending New York TRACON
Sun 11:08:30 PM 41.7333 -74.1333 151° Southeast 265 305 4,000 -150 Descending New York TRACON
Sun 11:09:30 PM 41.6833 -74.0833 143° Southeast 250 288 4,000 -300 Level New York TRACON
Sun 11:10:30 PM 41.6167 -74.0333 151° Southeast 231 266 3,400 -600 Descending New York TRACON
Sun 11:11:30 PM 41.5667 -74.0000 153° Southeast 200 230 2,800 -700 Descending New York TRACON
Sun 11:12:30 PM 41.5167 -73.9833 166° South 176 203 2,000 -700 Descending New York TRACON
Sun 11:13:30 PM 41.5167 -74.0500 270° West 150 173 1,400 -600 Descending New York TRACON

Login

Don't have an account? Register now (free) for customized features, flight alerts, and more!